Frej — SBPT — position and weather

sailwx.info

Track history (hours):
 
Tides and Currents Weather Stations Pressure Air Temp Water Temp Dewpoint Dewpoint Depression Visibility Wind Speed Wind Dir Waves Ship Positions

Frej

Last reported at 2017-Mar-26 13:00 UTC. Time now 2017-Mar-26 15:21 UTC.
Position N 65°36' E 022°12'.

Length 108 m; draft 7.8 m.

Type: Other ship. MMSI: 265068000.

Wind from 310 at 23 knots

Barometer 997.9 mb
Air temperature 6.3 ° C
Water temperature 0.9 ° C

Date/timePositionNaut miles runAvg speedWind from/ knotsBaromVisibWave heightAir tempDewpointWater temp
2017-Mar-26 13:00N 65°36' E 022°12'0 0.0 310 / 23997.9 6.3 0.9
2017-Mar-26 12:00N 65°36' E 022°12'0 0.0 310 / 41997.2 6.1 0.9
2017-Mar-26 11:00N 65°36' E 022°12'0 0.0 300 / 25997.1 6.1 0.9
2017-Mar-26 10:00N 65°36' E 022°12'0 0.0 290 / 21997.2 4.2 0.9
2017-Mar-26 09:00N 65°36' E 022°12'0 0.0 300 / 31995.8 8.4 1.0
2017-Mar-26 08:00N 65°36' E 022°12'0 0.0 300 / 21995.6 7.9 1.0
2017-Mar-26 07:00N 65°36' E 022°12'0 0.0 260 / 12996.3 6.6 0.9
2017-Mar-26 06:00N 65°36' E 022°12'0 0.0 220 / 12997.2 6.3 0.9
2017-Mar-26 05:00N 65°36' E 022°12'0 0.0 270 / 12998.7 5.3 0.7
2017-Mar-26 04:00N 65°36' E 022°12'8 7.8 230 / 10998.9 3.8 0.5
2017-Mar-26 03:00N 65°30' E 022°24'6 6.0 250 / 25999.5 2.5 0.6
2017-Mar-26 02:00N 65°24' E 022°24'7 6.5 210 / 231001.2 1.7 0.5
2017-Mar-26 01:00N 65°18' E 022°18'6 6.0 210 / 291002.8 1.5 0.4
2017-Mar-26 00:00N 65°12' E 022°18'14 4.7 210 / 291005.3 2.0 0.4
2017-Mar-25 21:00N 65°00' E 022°36'0 0.0 220 / 211009.7 2.2 0.6
2017-Mar-25 20:00N 65°00' E 022°36'3 1.3 230 / 211011.0 2.4 0.7
2017-Mar-25 18:00N 65°00' E 022°30'0 0.0 260 / 161012.3 2.1 0.5
2017-Mar-25 17:00N 65°00' E 022°30'0 0.0 210 / 191012.6 0.3 0.5
2017-Mar-25 16:00N 65°00' E 022°30'0 0.0 220 / 171013.0 0.9 0.5
2017-Mar-25 15:00N 65°00' E 022°30'0 0.0 200 / 141013.0 1.5 0.6
2017-Mar-25 14:00N 65°00' E 022°30'0 0.0 180 / 101013.0 2.2 0.6
2017-Mar-25 13:00N 65°00' E 022°30'0 0.0 210 / 61012.9 2.2 0.6
2017-Mar-25 12:00N 65°00' E 022°30'8 7.9 230 / 21012.6 1.8 0.3
2017-Mar-25 11:00N 65°06' E 022°18'1212.0 320 / 101012.3 2.3 0.4
2017-Mar-25 10:00N 65°18' E 022°18'6 6.0 280 / 41011.7 0.8 0.4
2017-Mar-25 09:00N 65°24' E 022°18'0 0.0 320 / 121011.3 1.0 1.2
2017-Mar-25 08:00N 65°24' E 022°18'0 0.0 310 / 121010.4 0.2 1.1
2017-Mar-25 07:00N 65°24' E 022°18'0 0.0 310 / 161009.5 -1.2 1.1
2017-Mar-25 06:00N 65°24' E 022°18'0 0.0 290 / 141008.8 -0.7 1.1
2017-Mar-25 05:00N 65°24' E 022°18'0 0.0 290 / 121008.1 -1.8 1.1
2017-Mar-25 04:00N 65°24' E 022°18'0 0.0 250 / 101007.7 -0.7 0.9
2017-Mar-25 03:00N 65°24' E 022°18'6 6.0 250 / 121007.6 -0.4 0.6
2017-Mar-25 02:00N 65°18' E 022°18'1212.0 240 / 141007.6 -0.1 0.4
2017-Mar-25 01:00N 65°06' E 022°18'0 0.0 230 / 161007.9 -0.1 0.6
2017-Mar-25 00:00N 65°06' E 022°18'0 0.0 230 / 161007.8 -0.0 0.5
2017-Mar-24 23:00N 65°06' E 022°18'0 0.0 230 / 161008.5 -0.3 0.4
2017-Mar-24 22:00N 65°06' E 022°18'1212.0 210 / 171008.8 0.3 0.3
2017-Mar-24 21:00N 65°18' E 022°18'6 6.0 220 / 171009.4 0.2 0.4
2017-Mar-24 20:00N 65°24' E 022°18'0 0.0 230 / 141010.2 0.4 0.5
2017-Mar-24 19:00N 65°24' E 022°18'0 0.0 230 / 171010.9 0.5 1.0
2017-Mar-24 18:00N 65°24' E 022°18'0 0.0 180 / 101011.6 -0.6 0.9
2017-Mar-24 16:00N 65°24' E 022°18'1212.0 190 / 161013.2 -1.3 0.4
2017-Mar-24 15:00N 65°12' E 022°18'1212.3 190 / 141014.4 0.2 0.3
2017-Mar-24 14:00N 65°00' E 022°24'12 5.9 200 / 161015.6 -1.0 0.3
2017-Mar-24 12:00N 64°54' E 022°48'0 0.0 260 / 121016.5 -1.3 0.4
2017-Mar-24 11:00N 64°54' E 022°48'0 0.0 260 / 121016.8 -2.1 0.4
2017-Mar-24 09:00N 64°54' E 022°48'8 7.9 290 / 141016.7 -3.6 0.3
2017-Mar-24 08:00N 64°48' E 022°36'3 2.6 300 / 141016.6 -2.9 0.3
2017-Mar-24 07:00N 64°48' E 022°30'10 9.7 300 / 121016.3 -3.7 0.3
2017-Mar-24 06:00N 64°54' E 022°48'17 8.7 300 / 161015.5 -5.0 0.3
2017-Mar-24 04:00N 65°06' E 023°18'8 7.8 300 / 171013.7 -6.4 0.3
2017-Mar-24 03:00N 65°12' E 023°30'8 7.8 300 / 171012.9 -7.1 0.3
2017-Mar-24 02:00N 65°18' E 023°42'3 2.5 300 / 191012.0 -6.8 0.3
2017-Mar-24 01:00N 65°18' E 023°48'7 6.5 300 / 191011.3 -5.9 0.3
2017-Mar-24 00:00N 65°24' E 023°54'7 6.5 300 / 191010.8 -5.0 0.3
2017-Mar-23 23:00N 65°18' E 023°48'3 2.5 290 / 171010.2 -4.2 0.3
2017-Mar-23 22:00N 65°18' E 023°42'8 7.8 300 / 211009.8 -3.4 0.3
2017-Mar-23 21:00N 65°12' E 023°30'8 7.8 290 / 211009.3 -2.1 0.3
2017-Mar-23 20:00N 65°06' E 023°18'8 7.9 290 / 251009.2 -1.0 0.3
2017-Mar-23 19:00N 65°00' E 023°06'10 9.7 290 / 171008.6 -0.6 0.3
2017-Mar-23 18:00N 64°54' E 022°48'1414.0 310 / 171008.7 -0.5 0.3
2017-Mar-23 17:00N 65°00' E 022°18'1212.0 300 / 211008.3 0.5 0.4
2017-Mar-23 16:00N 65°12' E 022°18'1212.0 280 / 211006.7 -0.2 0.4
2017-Mar-23 15:00N 65°24' E 022°18'0 0.0 300 / 271005.3 0.1 0.9
2017-Mar-23 14:00N 65°24' E 022°18'0 0.0 280 / 271004.5 0.8 0.8
2017-Mar-23 13:00N 65°24' E 022°18'0 0.0 280 / 191003.7 0.5 0.8
2017-Mar-23 12:00N 65°24' E 022°18'0 0.0 290 / 311002.7 1.0 0.7
2017-Mar-23 11:00N 65°24' E 022°18'18 9.0 280 / 351002.2 1.8 0.4
2017-Mar-23 09:00N 65°06' E 022°18'1313.0 290 / 211002.1 0.7 0.3
2017-Mar-23 08:00N 64°54' E 022°30'8 7.9 270 / 231002.6 -0.2 0.3
2017-Mar-23 07:00N 64°48' E 022°42'1313.0 270 / 191003.3 -0.8 0.3
2017-Mar-23 06:00N 64°36' E 022°54'1414.3 240 / 191003.8 -1.6 0.3
2017-Mar-23 05:00N 64°48' E 023°12'1010.2 250 / 251002.5 -2.3 0.3
2017-Mar-23 04:00N 64°48' E 022°48'1615.7 270 / 211002.4 -1.8 0.3
2017-Mar-23 03:00N 65°00' E 022°24'1212.3 280 / 211001.6 -1.5 0.3
2017-Mar-23 02:00N 65°12' E 022°18'1212.0 280 / 231000.2 -1.4 0.4
2017-Mar-23 01:00N 65°24' E 022°18'0 0.0 300 / 27998.4 0.7 0.4
2017-Mar-23 00:00N 65°24' E 022°18'6 6.0 290 / 21997.3 2.0 0.6
2017-Mar-22 23:00N 65°18' E 022°18'6 6.0 300 / 25996.3 1.9 0.4
2017-Mar-22 22:00N 65°12' E 022°18'6 6.0 280 / 25995.4 1.7 0.3
2017-Mar-22 21:00N 65°06' E 022°18'1212.0 250 / 25995.1 0.9 0.3
2017-Mar-22 20:00N 64°54' E 022°18'3 2.5 230 / 23994.6 0.9 0.3
2017-Mar-22 19:00N 64°54' E 022°24'0 0.0 220 / 21994.6 1.2 0.7
2017-Mar-22 18:00N 64°54' E 022°24'0 0.0 210 / 16994.6 1.2 0.8
2017-Mar-22 17:00N 64°54' E 022°24'0 0.0 230 / 19994.1 1.5 0.8
2017-Mar-22 16:00N 64°54' E 022°24'0 0.0 230 / 17993.6 0.7 0.7
2017-Mar-22 15:00N 64°54' E 022°24'0 0.0 240 / 17993.0 1.0 0.7
2017-Mar-22 14:00N 64°54' E 022°24'0 0.0 230 / 16992.4 1.1 0.8
2017-Mar-22 13:00N 64°54' E 022°24'0 0.0 230 / 16991.8 0.9 0.7
2017-Mar-22 12:00N 64°54' E 022°24'0 0.0 230 / 17991.2 0.6 0.7
2017-Mar-22 10:00N 64°54' E 022°24'7 6.5 230 / 16989.6 0.3 0.5
2017-Mar-22 09:00N 65°00' E 022°18'6 6.0 220 / 17988.6 -0.0 0.3
2017-Mar-22 08:00N 65°06' E 022°18'1212.0 240 / 14987.9 -0.4 0.3
2017-Mar-22 07:00N 65°18' E 022°18'6 6.0 210 / 12987.4 -0.3 0.5
2017-Mar-22 06:00N 65°24' E 022°18'6 6.0 170 / 8987.4 -0.2 0.5
2017-Mar-22 05:00N 65°18' E 022°18'1818.0 160 / 10987.3 -0.2 0.4
2017-Mar-22 04:00N 65°00' E 022°18'6 6.0 170 / 10987.3 -0.3 0.3
2017-Mar-22 03:00N 64°54' E 022°18'7 6.5 170 / 17987.1 -0.3 0.4
2017-Mar-22 02:00N 65°00' E 022°24'10 9.7 180 / 14987.6 -0.1 0.3
2017-Mar-22 01:00N 65°06' E 022°42'19 9.3 170 / 14988.2 0.3 0.3
2017-Mar-21 23:00N 65°12' E 023°24'5 5.0 130 / 23989.4 0.1 0.3
2017-Mar-21 22:00N 65°12' E 023°36'8 7.8 110 / 23990.4 0.3 0.3
2017-Mar-21 21:00N 65°18' E 023°48'7 6.5 100 / 21991.4 0.7 0.3
2017-Mar-21 20:00N 65°24' E 023°54'7 7.5 100 / 19992.7 0.4 0.3
2017-Mar-21 19:00N 65°24' E 024°12'0 0.0 120 / 19993.7 0.2 0.3
2017-Mar-21 18:00N 65°24' E 024°12'6 6.5 120 / 19994.5 -0.2 0.3
2017-Mar-21 17:00N 65°30' E 024°18'6 6.5 130 / 23995.2 -0.5 0.3
2017-Mar-21 16:00N 65°36' E 024°24'2 2.5 120 / 19996.1 -0.7 0.4
2017-Mar-21 15:00N 65°36' E 024°30'1414.1 130 / 17996.3 -0.6 0.4
2017-Mar-21 14:00N 65°24' E 024°12'1211.7 120 / 21996.0 -0.9 0.3
2017-Mar-21 13:00N 65°18' E 023°48'3 2.5 120 / 17996.3 -0.5 0.3
2017-Mar-21 12:00N 65°18' E 023°42'3 2.5 130 / 19996.5 -0.6 0.3
2017-Mar-21 11:00N 65°18' E 023°36'13 6.5 140 / 19996.7 -1.2 0.3
2017-Mar-21 09:00N 65°30' E 023°24'6 6.5 150 / 16997.1 -4.3 0.3
2017-Mar-21 08:00N 65°36' E 023°30'1313.0 150 / 19997.2 -4.9 0.4
2017-Mar-21 07:00N 65°48' E 023°18'8 7.8 140 / 14997.6 -5.6 0.7
2017-Mar-21 06:00N 65°42' E 023°30'6 6.0 160 / 16997.7 -6.1 0.5
2017-Mar-21 05:00N 65°36' E 023°30'6 6.5 150 / 16997.7 -6.8 0.4
2017-Mar-21 04:00N 65°30' E 023°24'6 6.5 160 / 17997.9 -5.4 0.3
2017-Mar-21 03:00N 65°24' E 023°18'6 6.0 160 / 16998.1 -5.9 0.3
2017-Mar-21 02:00N 65°18' E 023°18'1212.3 160 / 17998.3 -4.9 0.3
2017-Mar-21 01:00N 65°06' E 023°12'1212.3 170 / 16998.7 -4.3 0.3
2017-Mar-21 00:00N 64°54' E 023°06'8 7.6 170 / 16999.2 -3.4 0.3
2017-Mar-20 23:00N 64°54' E 022°48'12 5.9 150 / 17998.7 -3.9 0.3
2017-Mar-20 21:00N 65°00' E 022°24'0 0.0 170 / 14998.9 -2.7 0.5
2017-Mar-20 20:00N 65°00' E 022°24'0 0.0 180 / 21998.8 -1.7 0.6
2017-Mar-20 19:00N 65°00' E 022°24'0 0.0 170 / 19999.3 -1.7 0.5
2017-Mar-20 18:00N 65°00' E 022°24'0 0.0 190 / 19999.5 -0.7 0.5
2017-Mar-20 16:00N 65°00' E 022°24'0 0.0 190 / 27999.2 0.2 0.6
2017-Mar-20 14:00N 65°00' E 022°24'0 0.0 170 / 19999.5 -1.1 0.6
2017-Mar-20 13:00N 65°00' E 022°24'0 0.0 170 / 19999.9 -1.4 0.6
2017-Mar-20 12:00N 65°00' E 022°24'0 0.0 160 / 161000.4 -1.6 0.6
2017-Mar-20 10:00N 65°00' E 022°24'0 0.0 160 / 161000.7 -3.2 0.5
2017-Mar-20 09:00N 65°00' E 022°24'0 0.0 150 / 191000.8 -3.7 0.6
2017-Mar-20 08:00N 65°00' E 022°24'0 0.0 160 / 171001.0 -4.0 0.5
2017-Mar-20 07:00N 65°00' E 022°24'0 0.0 160 / 171001.1 -4.4 0.5
2017-Mar-20 06:00N 65°00' E 022°24'0 0.0 170 / 171001.5 -4.6 0.5
2017-Mar-20 03:00N 65°00' E 022°24'8 2.6 170 / 191001.7 -4.1 0.7
2017-Mar-20 00:00N 64°54' E 022°12'2412.1 160 / 171001.8 -2.8 0.3
2017-Mar-19 22:00N 65°18' E 022°18'6 6.0 170 / 161002.6 -4.7 0.4
2017-Mar-19 21:00N 65°24' E 022°18'0 0.0 170 / 171002.8 -4.5 1.0
2017-Mar-19 20:00N 65°24' E 022°18'0 0.0 160 / 171002.8 -5.1 1.0
2017-Mar-19 19:00N 65°24' E 022°18'0 0.0 160 / 171002.9 -4.9 0.9
2017-Mar-19 18:00N 65°24' E 022°18'0 0.0 170 / 161003.1 -4.3 0.8
2017-Mar-19 17:00N 65°24' E 022°18'0 0.0 170 / 161003.1 -4.2 0.7
2017-Mar-19 16:00N 65°24' E 022°18'6 6.0 170 / 141003.0 -3.4 0.5
2017-Mar-19 15:00N 65°18' E 022°18'18 6.0 160 / 101003.3 -2.3 0.5
2017-Mar-19 12:00N 65°00' E 022°18'7 2.2 210 / 81003.8 -2.1 0.7
2017-Mar-19 09:00N 64°54' E 022°24'0 0.0 170 / 41003.4 -3.4 0.9
2017-Mar-19 08:00N 64°54' E 022°24'0 0.0 200 / 41003.0 -4.1 0.8
2017-Mar-19 07:00N 64°54' E 022°24'0 0.0 290 1002.6 -3.9 0.8
2017-Mar-19 06:00N 64°54' E 022°24'0 0.0 310 / 61002.6 -5.2 0.7
2017-Mar-19 05:00N 64°54' E 022°24'0 0.0 340 / 61001.8 -5.0 0.7
2017-Mar-19 04:00N 64°54' E 022°24'0 0.0 330 / 81001.2 -5.0 0.6
2017-Mar-19 03:00N 64°54' E 022°24'0 0.0 330 / 101000.5 -4.8 0.6
2017-Mar-19 02:00N 64°54' E 022°24'0 0.0 320 / 12999.7 -4.7 0.6
2017-Mar-19 01:00N 64°54' E 022°24'6 6.0 320 / 12999.0 -4.1 0.5
2017-Mar-19 00:00N 64°48' E 022°24'3010.0 330 / 14998.1 -3.6 0.3
2017-Mar-18 21:00N 65°18' E 022°18'6 6.0 330 / 12995.7 -4.3 0.4
2017-Mar-18 20:00N 65°24' E 022°18'0 0.0 330 / 14994.6 -4.1 0.8
2017-Mar-18 19:00N 65°24' E 022°18'1212.0 320 / 16993.5 -2.1 0.4
2017-Mar-18 18:00N 65°12' E 022°18'1313.0 350 / 16992.3 -1.3 0.3
2017-Mar-18 17:00N 65°00' E 022°30'2411.8 340 / 23990.7 -0.3 0.3
2017-Mar-18 15:00N 64°48' E 023°18'7 6.5 280 / 19988.1 -0.1 0.3
2017-Mar-18 14:00N 64°42' E 023°12'18 9.0 270 / 16987.2 0.2 0.3
2017-Mar-18 12:00N 64°42' E 022°30'0 0.0 290 / 17985.7 1.5 0.6
2017-Mar-18 09:00N 64°42' E 022°30'12 6.1 290 / 16983.0 0.8 0.6
2017-Mar-18 07:00N 64°54' E 022°36'1211.8 280 / 17980.7 0.1 0.3
2017-Mar-18 06:00N 65°00' E 023°00'10 9.7 240 / 14979.9 -2.0 0.3
2017-Mar-18 05:00N 65°06' E 023°18'17 8.7 200 / 19979.5 -2.2 0.3
2017-Mar-18 03:00N 65°18' E 023°48'1212.0 190 / 23978.9 -2.6 0.3
2017-Mar-18 02:00N 65°06' E 023°48'1212.3 180 / 21979.0 -2.0 0.3
2017-Mar-18 01:00N 64°54' E 023°54'8 7.6 180 / 23979.2 -1.3 0.3
2017-Mar-18 00:00N 64°54' E 023°36'1312.7 190 / 21978.9 -1.0 0.3
2017-Mar-17 23:00N 64°54' E 023°06'5 5.1 180 / 19978.5 -1.1 0.3
2017-Mar-17 22:00N 64°54' E 022°54'1414.0 200 / 19978.1 -0.8 0.3
2017-Mar-17 21:00N 65°00' E 022°24'3 2.5 200 / 21977.2 -0.1 0.3
2017-Mar-17 20:00N 65°00' E 022°30'1010.1 210 / 21977.4 -0.1 0.3
2017-Mar-17 19:00N 65°00' E 022°06'0 0.0 190 / 19977.1 0.5 0.3
2017-Mar-17 18:00N 65°00' E 022°06'8 7.9 210 / 17977.3 0.9 0.3
2017-Mar-17 17:00N 64°54' E 021°54'8 7.9 200 / 23977.3 1.5 0.4
2017-Mar-17 16:00N 64°48' E 021°42'1212.0 200 / 25976.5 2.9 0.4
2017-Mar-17 15:00N 65°00' E 021°42'3 2.5 200 / 16976.6 2.7 0.5
2017-Mar-17 14:00N 65°00' E 021°48'1313.0 210 / 14977.3 1.4 0.5
2017-Mar-17 13:00N 64°48' E 021°36'1212.3 200 / 8977.7 2.4 0.5
2017-Mar-17 12:00N 64°36' E 021°42'1010.3 190 / 16978.4 1.8 0.5
2017-Mar-17 11:00N 64°36' E 022°06'8 7.9 220 / 19978.5 0.9 0.4
2017-Mar-17 10:00N 64°42' E 022°18'7 6.5 220 / 16978.9 0.8 0.3
2017-Mar-17 09:00N 64°36' E 022°24'1212.3 230 / 12980.0 0.5 0.3
2017-Mar-17 08:00N 64°24' E 022°30'3 2.6 200 / 12980.6 0.4 0.3
2017-Mar-17 07:00N 64°24' E 022°36'1313.1 210 / 21980.7 0.6 0.3
2017-Mar-17 06:00N 64°36' E 022°24'1414.3 220 / 21980.7 0.3 0.3
2017-Mar-17 05:00N 64°48' E 022°42'2110.3 210 / 23981.0 0.4 0.3
2017-Mar-17 03:00N 65°06' E 022°18'1212.0 200 / 25982.3 0.1 0.3
2017-Mar-17 02:00N 65°18' E 022°18'7 6.5 200 / 25983.9 -0.0 0.3
2017-Mar-17 01:00N 65°24' E 022°24'6 6.5 190 / 29985.3 -0.1 0.4
2017-Mar-17 00:00N 65°30' E 022°18'6 6.5 200 / 16987.0 -0.1 0.4
2017-Mar-16 23:00N 65°36' E 022°12'0 0.0 180 / 19988.7 -0.0 0.7
2017-Mar-16 22:00N 65°36' E 022°12'0 0.0 190 / 23990.3 -0.2 0.7
2017-Mar-16 21:00N 65°36' E 022°12'0 0.0 200 / 25991.9 0.6 0.7
2017-Mar-16 20:00N 65°36' E 022°12'0 0.0 190 / 17993.8 1.1 0.7
2017-Mar-16 19:00N 65°36' E 022°12'0 0.0 180 / 14994.9 -0.1 0.7
2017-Mar-16 18:00N 65°36' E 022°12'0 0.0 170 / 14996.2 0.3 0.7
2017-Mar-16 17:00N 65°36' E 022°12'0 0.0 200 / 12997.0 2.8 0.7
2017-Mar-16 16:00N 65°36' E 022°12'0 0.0 200 / 6997.7 3.6 0.7
2017-Mar-16 15:00N 65°36' E 022°12'0 0.0 230 / 14998.7 4.7 0.7
2017-Mar-16 14:00N 65°36' E 022°12'0 0.0 240 / 8999.6 5.1 0.6
2017-Mar-16 13:00N 65°36' E 022°12'   280 / 14999.8 5.2 0.6
Track history (hours):
 
Tides and Currents Weather Stations Pressure Air Temp Water Temp Dewpoint Dewpoint Depression Visibility Wind Speed Wind Dir Waves Ship Positions

Frej

Last reported at 2017-Mar-26 13:00 UTC. Time now 2017-Mar-26 15:21 UTC.
Position N 65°36' E 022°12'.

Length 108 m; draft 7.8 m.

Type: Other ship. MMSI: 265068000.

Wind from 310 at 23 knots

Barometer 997.9 mb
Air temperature 6.3 ° C
Water temperature 0.9 ° C

Date/timePositionNaut miles runAvg speedWind from/ knotsBaromVisibWave heightAir tempDewpointWater temp
2017-Mar-26 13:00N 65°36' E 022°12'0 0.0 310 / 23997.9 6.3 0.9
2017-Mar-26 12:00N 65°36' E 022°12'0 0.0 310 / 41997.2 6.1 0.9
2017-Mar-26 11:00N 65°36' E 022°12'0 0.0 300 / 25997.1 6.1 0.9
2017-Mar-26 10:00N 65°36' E 022°12'0 0.0 290 / 21997.2 4.2 0.9
2017-Mar-26 09:00N 65°36' E 022°12'0 0.0 300 / 31995.8 8.4 1.0
2017-Mar-26 08:00N 65°36' E 022°12'0 0.0 300 / 21995.6 7.9 1.0
2017-Mar-26 07:00N 65°36' E 022°12'0 0.0 260 / 12996.3 6.6 0.9
2017-Mar-26 06:00N 65°36' E 022°12'0 0.0 220 / 12997.2 6.3 0.9
2017-Mar-26 05:00N 65°36' E 022°12'0 0.0 270 / 12998.7 5.3 0.7
2017-Mar-26 04:00N 65°36' E 022°12'8 7.8 230 / 10998.9 3.8 0.5
2017-Mar-26 03:00N 65°30' E 022°24'6 6.0 250 / 25999.5 2.5 0.6
2017-Mar-26 02:00N 65°24' E 022°24'7 6.5 210 / 231001.2 1.7 0.5
2017-Mar-26 01:00N 65°18' E 022°18'6 6.0 210 / 291002.8 1.5 0.4
2017-Mar-26 00:00N 65°12' E 022°18'14 4.7 210 / 291005.3 2.0 0.4
2017-Mar-25 21:00N 65°00' E 022°36'0 0.0 220 / 211009.7 2.2 0.6
2017-Mar-25 20:00N 65°00' E 022°36'3 1.3 230 / 211011.0 2.4 0.7
2017-Mar-25 18:00N 65°00' E 022°30'0 0.0 260 / 161012.3 2.1 0.5
2017-Mar-25 17:00N 65°00' E 022°30'0 0.0 210 / 191012.6 0.3 0.5
2017-Mar-25 16:00N 65°00' E 022°30'0 0.0 220 / 171013.0 0.9 0.5
2017-Mar-25 15:00N 65°00' E 022°30'0 0.0 200 / 141013.0 1.5 0.6
2017-Mar-25 14:00N 65°00' E 022°30'0 0.0 180 / 101013.0 2.2 0.6
2017-Mar-25 13:00N 65°00' E 022°30'0 0.0 210 / 61012.9 2.2 0.6
2017-Mar-25 12:00N 65°00' E 022°30'8 7.9 230 / 21012.6 1.8 0.3
2017-Mar-25 11:00N 65°06' E 022°18'1212.0 320 / 101012.3 2.3 0.4
2017-Mar-25 10:00N 65°18' E 022°18'6 6.0 280 / 41011.7 0.8 0.4
2017-Mar-25 09:00N 65°24' E 022°18'0 0.0 320 / 121011.3 1.0 1.2
2017-Mar-25 08:00N 65°24' E 022°18'0 0.0 310 / 121010.4 0.2 1.1
2017-Mar-25 07:00N 65°24' E 022°18'0 0.0 310 / 161009.5 -1.2 1.1
2017-Mar-25 06:00N 65°24' E 022°18'0 0.0 290 / 141008.8 -0.7 1.1
2017-Mar-25 05:00N 65°24' E 022°18'0 0.0 290 / 121008.1 -1.8 1.1
2017-Mar-25 04:00N 65°24' E 022°18'0 0.0 250 / 101007.7 -0.7 0.9
2017-Mar-25 03:00N 65°24' E 022°18'6 6.0 250 / 121007.6 -0.4 0.6
2017-Mar-25 02:00N 65°18' E 022°18'1212.0 240 / 141007.6 -0.1 0.4
2017-Mar-25 01:00N 65°06' E 022°18'0 0.0 230 / 161007.9 -0.1 0.6
2017-Mar-25 00:00N 65°06' E 022°18'0 0.0 230 / 161007.8 -0.0 0.5
2017-Mar-24 23:00N 65°06' E 022°18'0 0.0 230 / 161008.5 -0.3 0.4
2017-Mar-24 22:00N 65°06' E 022°18'1212.0 210 / 171008.8 0.3 0.3
2017-Mar-24 21:00N 65°18' E 022°18'6 6.0 220 / 171009.4 0.2 0.4
2017-Mar-24 20:00N 65°24' E 022°18'0 0.0 230 / 141010.2 0.4 0.5
2017-Mar-24 19:00N 65°24' E 022°18'0 0.0 230 / 171010.9 0.5 1.0
2017-Mar-24 18:00N 65°24' E 022°18'0 0.0 180 / 101011.6 -0.6 0.9
2017-Mar-24 16:00N 65°24' E 022°18'1212.0 190 / 161013.2 -1.3 0.4
2017-Mar-24 15:00N 65°12' E 022°18'1212.3 190 / 141014.4 0.2 0.3
2017-Mar-24 14:00N 65°00' E 022°24'12 5.9 200 / 161015.6 -1.0 0.3
2017-Mar-24 12:00N 64°54' E 022°48'0 0.0 260 / 121016.5 -1.3 0.4
2017-Mar-24 11:00N 64°54' E 022°48'0 0.0 260 / 121016.8 -2.1 0.4
2017-Mar-24 09:00N 64°54' E 022°48'8 7.9 290 / 141016.7 -3.6 0.3
2017-Mar-24 08:00N 64°48' E 022°36'3 2.6 300 / 141016.6 -2.9 0.3
2017-Mar-24 07:00N 64°48' E 022°30'10 9.7 300 / 121016.3 -3.7 0.3
2017-Mar-24 06:00N 64°54' E 022°48'17 8.7 300 / 161015.5 -5.0 0.3
2017-Mar-24 04:00N 65°06' E 023°18'8 7.8 300 / 171013.7 -6.4 0.3
2017-Mar-24 03:00N 65°12' E 023°30'8 7.8 300 / 171012.9 -7.1 0.3
2017-Mar-24 02:00N 65°18' E 023°42'3 2.5 300 / 191012.0 -6.8 0.3
2017-Mar-24 01:00N 65°18' E 023°48'7 6.5 300 / 191011.3 -5.9 0.3
2017-Mar-24 00:00N 65°24' E 023°54'7 6.5 300 / 191010.8 -5.0 0.3
2017-Mar-23 23:00N 65°18' E 023°48'3 2.5 290 / 171010.2 -4.2 0.3
2017-Mar-23 22:00N 65°18' E 023°42'8 7.8 300 / 211009.8 -3.4 0.3
2017-Mar-23 21:00N 65°12' E 023°30'8 7.8 290 / 211009.3 -2.1 0.3
2017-Mar-23 20:00N 65°06' E 023°18'8 7.9 290 / 251009.2 -1.0 0.3
2017-Mar-23 19:00N 65°00' E 023°06'10 9.7 290 / 171008.6 -0.6 0.3
2017-Mar-23 18:00N 64°54' E 022°48'1414.0 310 / 171008.7 -0.5 0.3
2017-Mar-23 17:00N 65°00' E 022°18'1212.0 300 / 211008.3 0.5 0.4
2017-Mar-23 16:00N 65°12' E 022°18'1212.0 280 / 211006.7 -0.2 0.4
2017-Mar-23 15:00N 65°24' E 022°18'0 0.0 300 / 271005.3 0.1 0.9
2017-Mar-23 14:00N 65°24' E 022°18'0 0.0 280 / 271004.5 0.8 0.8
2017-Mar-23 13:00N 65°24' E 022°18'0 0.0 280 / 191003.7 0.5 0.8
2017-Mar-23 12:00N 65°24' E 022°18'0 0.0 290 / 311002.7 1.0 0.7
2017-Mar-23 11:00N 65°24' E 022°18'18 9.0 280 / 351002.2 1.8 0.4
2017-Mar-23 09:00N 65°06' E 022°18'1313.0 290 / 211002.1 0.7 0.3
2017-Mar-23 08:00N 64°54' E 022°30'8 7.9 270 / 231002.6 -0.2 0.3
2017-Mar-23 07:00N 64°48' E 022°42'1313.0 270 / 191003.3 -0.8 0.3
2017-Mar-23 06:00N 64°36' E 022°54'1414.3 240 / 191003.8 -1.6 0.3
2017-Mar-23 05:00N 64°48' E 023°12'1010.2 250 / 251002.5 -2.3 0.3
2017-Mar-23 04:00N 64°48' E 022°48'1615.7 270 / 211002.4 -1.8 0.3
2017-Mar-23 03:00N 65°00' E 022°24'1212.3 280 / 211001.6 -1.5 0.3
2017-Mar-23 02:00N 65°12' E 022°18'1212.0 280 / 231000.2 -1.4 0.4
2017-Mar-23 01:00N 65°24' E 022°18'0 0.0 300 / 27998.4 0.7 0.4
2017-Mar-23 00:00N 65°24' E 022°18'6 6.0 290 / 21997.3 2.0 0.6
2017-Mar-22 23:00N 65°18' E 022°18'6 6.0 300 / 25996.3 1.9 0.4
2017-Mar-22 22:00N 65°12' E 022°18'6 6.0 280 / 25995.4 1.7 0.3
2017-Mar-22 21:00N 65°06' E 022°18'1212.0 250 / 25995.1 0.9 0.3
2017-Mar-22 20:00N 64°54' E 022°18'3 2.5 230 / 23994.6 0.9 0.3
2017-Mar-22 19:00N 64°54' E 022°24'0 0.0 220 / 21994.6 1.2 0.7
2017-Mar-22 18:00N 64°54' E 022°24'0 0.0 210 / 16994.6 1.2 0.8
2017-Mar-22 17:00N 64°54' E 022°24'0 0.0 230 / 19994.1 1.5 0.8
2017-Mar-22 16:00N 64°54' E 022°24'0 0.0 230 / 17993.6 0.7 0.7
2017-Mar-22 15:00N 64°54' E 022°24'0 0.0 240 / 17993.0 1.0 0.7
2017-Mar-22 14:00N 64°54' E 022°24'0 0.0 230 / 16992.4 1.1 0.8
2017-Mar-22 13:00N 64°54' E 022°24'0 0.0 230 / 16991.8 0.9 0.7
2017-Mar-22 12:00N 64°54' E 022°24'0 0.0 230 / 17991.2 0.6 0.7
2017-Mar-22 10:00N 64°54' E 022°24'7 6.5 230 / 16989.6 0.3 0.5
2017-Mar-22 09:00N 65°00' E 022°18'6 6.0 220 / 17988.6 -0.0 0.3
2017-Mar-22 08:00N 65°06' E 022°18'1212.0 240 / 14987.9 -0.4 0.3
2017-Mar-22 07:00N 65°18' E 022°18'6 6.0 210 / 12987.4 -0.3 0.5
2017-Mar-22 06:00N 65°24' E 022°18'6 6.0 170 / 8987.4 -0.2 0.5
2017-Mar-22 05:00N 65°18' E 022°18'1818.0 160 / 10987.3 -0.2 0.4
2017-Mar-22 04:00N 65°00' E 022°18'6 6.0 170 / 10987.3 -0.3 0.3
2017-Mar-22 03:00N 64°54' E 022°18'7 6.5 170 / 17987.1 -0.3 0.4
2017-Mar-22 02:00N 65°00' E 022°24'10 9.7 180 / 14987.6 -0.1 0.3
2017-Mar-22 01:00N 65°06' E 022°42'19 9.3 170 / 14988.2 0.3 0.3
2017-Mar-21 23:00N 65°12' E 023°24'5 5.0 130 / 23989.4 0.1 0.3
2017-Mar-21 22:00N 65°12' E 023°36'8 7.8 110 / 23990.4 0.3 0.3
2017-Mar-21 21:00N 65°18' E 023°48'7 6.5 100 / 21991.4 0.7 0.3
2017-Mar-21 20:00N 65°24' E 023°54'7 7.5 100 / 19992.7 0.4 0.3
2017-Mar-21 19:00N 65°24' E 024°12'0 0.0 120 / 19993.7 0.2 0.3
2017-Mar-21 18:00N 65°24' E 024°12'6 6.5 120 / 19994.5 -0.2 0.3
2017-Mar-21 17:00N 65°30' E 024°18'6 6.5 130 / 23995.2 -0.5 0.3
2017-Mar-21 16:00N 65°36' E 024°24'2 2.5 120 / 19996.1 -0.7 0.4
2017-Mar-21 15:00N 65°36' E 024°30'1414.1 130 / 17996.3 -0.6 0.4
2017-Mar-21 14:00N 65°24' E 024°12'1211.7 120 / 21996.0 -0.9 0.3
2017-Mar-21 13:00N 65°18' E 023°48'3 2.5 120 / 17996.3 -0.5 0.3
2017-Mar-21 12:00N 65°18' E 023°42'3 2.5 130 / 19996.5 -0.6 0.3
2017-Mar-21 11:00N 65°18' E 023°36'13 6.5 140 / 19996.7 -1.2 0.3
2017-Mar-21 09:00N 65°30' E 023°24'6 6.5 150 / 16997.1 -4.3 0.3
2017-Mar-21 08:00N 65°36' E 023°30'1313.0 150 / 19997.2 -4.9 0.4
2017-Mar-21 07:00N 65°48' E 023°18'8 7.8 140 / 14997.6 -5.6 0.7
2017-Mar-21 06:00N 65°42' E 023°30'6 6.0 160 / 16997.7 -6.1 0.5
2017-Mar-21 05:00N 65°36' E 023°30'6 6.5 150 / 16997.7 -6.8 0.4
2017-Mar-21 04:00N 65°30' E 023°24'6 6.5 160 / 17997.9 -5.4 0.3
2017-Mar-21 03:00N 65°24' E 023°18'6 6.0 160 / 16998.1 -5.9 0.3
2017-Mar-21 02:00N 65°18' E 023°18'1212.3 160 / 17998.3 -4.9 0.3
2017-Mar-21 01:00N 65°06' E 023°12'1212.3 170 / 16998.7 -4.3 0.3
2017-Mar-21 00:00N 64°54' E 023°06'8 7.6 170 / 16999.2 -3.4 0.3
2017-Mar-20 23:00N 64°54' E 022°48'12 5.9 150 / 17998.7 -3.9 0.3
2017-Mar-20 21:00N 65°00' E 022°24'0 0.0 170 / 14998.9 -2.7 0.5
2017-Mar-20 20:00N 65°00' E 022°24'0 0.0 180 / 21998.8 -1.7 0.6
2017-Mar-20 19:00N 65°00' E 022°24'0 0.0 170 / 19999.3 -1.7 0.5
2017-Mar-20 18:00N 65°00' E 022°24'0 0.0 190 / 19999.5 -0.7 0.5
2017-Mar-20 16:00N 65°00' E 022°24'0 0.0 190 / 27999.2 0.2 0.6
2017-Mar-20 14:00N 65°00' E 022°24'0 0.0 170 / 19999.5 -1.1 0.6
2017-Mar-20 13:00N 65°00' E 022°24'0 0.0 170 / 19999.9 -1.4 0.6
2017-Mar-20 12:00N 65°00' E 022°24'0 0.0 160 / 161000.4 -1.6 0.6
2017-Mar-20 10:00N 65°00' E 022°24'0 0.0 160 / 161000.7 -3.2 0.5
2017-Mar-20 09:00N 65°00' E 022°24'0 0.0 150 / 191000.8 -3.7 0.6
2017-Mar-20 08:00N 65°00' E 022°24'0 0.0 160 / 171001.0 -4.0 0.5
2017-Mar-20 07:00N 65°00' E 022°24'0 0.0 160 / 171001.1 -4.4 0.5
2017-Mar-20 06:00N 65°00' E 022°24'0 0.0 170 / 171001.5 -4.6 0.5
2017-Mar-20 03:00N 65°00' E 022°24'8 2.6 170 / 191001.7 -4.1 0.7
2017-Mar-20 00:00N 64°54' E 022°12'2412.1 160 / 171001.8 -2.8 0.3
2017-Mar-19 22:00N 65°18' E 022°18'6 6.0 170 / 161002.6 -4.7 0.4
2017-Mar-19 21:00N 65°24' E 022°18'0 0.0 170 / 171002.8 -4.5 1.0
2017-Mar-19 20:00N 65°24' E 022°18'0 0.0 160 / 171002.8 -5.1 1.0
2017-Mar-19 19:00N 65°24' E 022°18'0 0.0 160 / 171002.9 -4.9 0.9
2017-Mar-19 18:00N 65°24' E 022°18'0 0.0 170 / 161003.1 -4.3 0.8
2017-Mar-19 17:00N 65°24' E 022°18'0 0.0 170 / 161003.1 -4.2 0.7
2017-Mar-19 16:00N 65°24' E 022°18'6 6.0 170 / 141003.0 -3.4 0.5
2017-Mar-19 15:00N 65°18' E 022°18'18 6.0 160 / 101003.3 -2.3 0.5
2017-Mar-19 12:00N 65°00' E 022°18'7 2.2 210 / 81003.8 -2.1 0.7
2017-Mar-19 09:00N 64°54' E 022°24'0 0.0 170 / 41003.4 -3.4 0.9
2017-Mar-19 08:00N 64°54' E 022°24'0 0.0 200 / 41003.0 -4.1 0.8
2017-Mar-19 07:00N 64°54' E 022°24'0 0.0 290 1002.6 -3.9 0.8
2017-Mar-19 06:00N 64°54' E 022°24'0 0.0 310 / 61002.6 -5.2 0.7
2017-Mar-19 05:00N 64°54' E 022°24'0 0.0 340 / 61001.8 -5.0 0.7
2017-Mar-19 04:00N 64°54' E 022°24'0 0.0 330 / 81001.2 -5.0 0.6
2017-Mar-19 03:00N 64°54' E 022°24'0 0.0 330 / 101000.5 -4.8 0.6
2017-Mar-19 02:00N 64°54' E 022°24'0 0.0 320 / 12999.7 -4.7 0.6
2017-Mar-19 01:00N 64°54' E 022°24'6 6.0 320 / 12999.0 -4.1 0.5
2017-Mar-19 00:00N 64°48' E 022°24'3010.0 330 / 14998.1 -3.6 0.3
2017-Mar-18 21:00N 65°18' E 022°18'6 6.0 330 / 12995.7 -4.3 0.4
2017-Mar-18 20:00N 65°24' E 022°18'0 0.0 330 / 14994.6 -4.1 0.8
2017-Mar-18 19:00N 65°24' E 022°18'1212.0 320 / 16993.5 -2.1 0.4
2017-Mar-18 18:00N 65°12' E 022°18'1313.0 350 / 16992.3 -1.3 0.3
2017-Mar-18 17:00N 65°00' E 022°30'2411.8 340 / 23990.7 -0.3 0.3
2017-Mar-18 15:00N 64°48' E 023°18'7 6.5 280 / 19988.1 -0.1 0.3
2017-Mar-18 14:00N 64°42' E 023°12'18 9.0 270 / 16987.2 0.2 0.3
2017-Mar-18 12:00N 64°42' E 022°30'0 0.0 290 / 17985.7 1.5 0.6
2017-Mar-18 09:00N 64°42' E 022°30'12 6.1 290 / 16983.0 0.8 0.6
2017-Mar-18 07:00N 64°54' E 022°36'1211.8 280 / 17980.7 0.1 0.3
2017-Mar-18 06:00N 65°00' E 023°00'10 9.7 240 / 14979.9 -2.0 0.3
2017-Mar-18 05:00N 65°06' E 023°18'17 8.7 200 / 19979.5 -2.2 0.3
2017-Mar-18 03:00N 65°18' E 023°48'1212.0 190 / 23978.9 -2.6 0.3
2017-Mar-18 02:00N 65°06' E 023°48'1212.3 180 / 21979.0 -2.0 0.3
2017-Mar-18 01:00N 64°54' E 023°54'8 7.6 180 / 23979.2 -1.3 0.3
2017-Mar-18 00:00N 64°54' E 023°36'1312.7 190 / 21978.9 -1.0 0.3
2017-Mar-17 23:00N 64°54' E 023°06'5 5.1 180 / 19978.5 -1.1 0.3
2017-Mar-17 22:00N 64°54' E 022°54'1414.0 200 / 19978.1 -0.8 0.3
2017-Mar-17 21:00N 65°00' E 022°24'3 2.5 200 / 21977.2 -0.1 0.3
2017-Mar-17 20:00N 65°00' E 022°30'1010.1 210 / 21977.4 -0.1 0.3
2017-Mar-17 19:00N 65°00' E 022°06'0 0.0 190 / 19977.1 0.5 0.3
2017-Mar-17 18:00N 65°00' E 022°06'8 7.9 210 / 17977.3 0.9 0.3
2017-Mar-17 17:00N 64°54' E 021°54'8 7.9 200 / 23977.3 1.5 0.4
2017-Mar-17 16:00N 64°48' E 021°42'1212.0 200 / 25976.5 2.9 0.4
2017-Mar-17 15:00N 65°00' E 021°42'3 2.5 200 / 16976.6 2.7 0.5
2017-Mar-17 14:00N 65°00' E 021°48'1313.0 210 / 14977.3 1.4 0.5
2017-Mar-17 13:00N 64°48' E 021°36'1212.3 200 / 8977.7 2.4 0.5
2017-Mar-17 12:00N 64°36' E 021°42'1010.3 190 / 16978.4 1.8 0.5
2017-Mar-17 11:00N 64°36' E 022°06'8 7.9 220 / 19978.5 0.9 0.4
2017-Mar-17 10:00N 64°42' E 022°18'7 6.5 220 / 16978.9 0.8 0.3
2017-Mar-17 09:00N 64°36' E 022°24'1212.3 230 / 12980.0 0.5 0.3
2017-Mar-17 08:00N 64°24' E 022°30'3 2.6 200 / 12980.6 0.4 0.3
2017-Mar-17 07:00N 64°24' E 022°36'1313.1 210 / 21980.7 0.6 0.3
2017-Mar-17 06:00N 64°36' E 022°24'1414.3 220 / 21980.7 0.3 0.3
2017-Mar-17 05:00N 64°48' E 022°42'2110.3 210 / 23981.0 0.4 0.3
2017-Mar-17 03:00N 65°06' E 022°18'1212.0 200 / 25982.3 0.1 0.3
2017-Mar-17 02:00N 65°18' E 022°18'7 6.5 200 / 25983.9 -0.0 0.3
2017-Mar-17 01:00N 65°24' E 022°24'6 6.5 190 / 29985.3 -0.1 0.4
2017-Mar-17 00:00N 65°30' E 022°18'6 6.5 200 / 16987.0 -0.1 0.4
2017-Mar-16 23:00N 65°36' E 022°12'0 0.0 180 / 19988.7 -0.0 0.7
2017-Mar-16 22:00N 65°36' E 022°12'0 0.0 190 / 23990.3 -0.2 0.7
2017-Mar-16 21:00N 65°36' E 022°12'0 0.0 200 / 25991.9 0.6 0.7
2017-Mar-16 20:00N 65°36' E 022°12'0 0.0 190 / 17993.8 1.1 0.7
2017-Mar-16 19:00N 65°36' E 022°12'0 0.0 180 / 14994.9 -0.1 0.7
2017-Mar-16 18:00N 65°36' E 022°12'0 0.0 170 / 14996.2 0.3 0.7
2017-Mar-16 17:00N 65°36' E 022°12'0 0.0 200 / 12997.0 2.8 0.7
2017-Mar-16 16:00N 65°36' E 022°12'0 0.0 200 / 6997.7 3.6 0.7
2017-Mar-16 15:00N 65°36' E 022°12'0 0.0 230 / 14998.7 4.7 0.7
2017-Mar-16 14:00N 65°36' E 022°12'0 0.0 240 / 8999.6 5.1 0.6
2017-Mar-16 13:00N 65°36' E 022°12'   280 / 14999.8 5.2 0.6

Dump ship's entire track history